Time;durP1;ratioP1;P1;durP2;ratioP2;P2;SDS_P1;SDS_P2;PMS_P1;PMS_P2;Temp;Humidity;BMP_temperature;BMP_pressure;BME280_temperature;BME280_humidity;BME280_pressure;Samples;Min_cycle;Max_cycle;Signal;HPM_P1;HPM_P2
2023/04/02 00:02:20;;;;;;;2.00;1.53;;;10.50;99.90;;;;;;5030727;28;20783;-69
2023/04/02 00:05:18;;;;;;;4.57;1.53;;;10.50;99.90;;;;;;5028516;28;20790;-72
2023/04/02 00:07:49;;;;;;;2.13;1.50;;;10.50;99.90;;;;;;5032406;28;20538;-73
2023/04/02 00:10:31;;;;;;;3.03;1.70;;;10.40;99.90;;;;;;5028794;28;20808;-72
2023/04/02 00:13:10;;;;;;;3.63;1.60;;;10.40;99.90;;;;;;5026639;28;20442;-72
2023/04/02 00:15:38;;;;;;;2.67;1.30;;;10.40;99.90;;;;;;5025187;28;20504;-69
2023/04/02 00:18:04;;;;;;;4.13;2.10;;;10.40;99.90;;;;;;5029887;28;21044;-69
2023/04/02 00:20:37;;;;;;;4.60;1.60;;;10.50;99.90;;;;;;5027923;28;20482;-69
2023/04/02 00:23:04;;;;;;;1.97;1.40;;;10.60;99.90;;;;;;5025959;28;20438;-69
2023/04/02 00:25:35;;;;;;;1.90;1.30;;;10.50;99.90;;;;;;5019928;28;20430;-69
2023/04/02 00:28:02;;;;;;;2.37;1.53;;;10.40;99.90;;;;;;5027619;28;20479;-69
2023/04/02 00:30:28;;;;;;;2.60;1.20;;;10.40;99.90;;;;;;5025959;28;20834;-69
2023/04/02 00:32:53;;;;;;;2.10;1.40;;;10.40;99.90;;;;;;5027998;28;20434;-69
2023/04/02 00:35:27;;;;;;;2.73;1.40;;;10.50;99.90;;;;;;5030639;28;20185;-69
2023/04/02 00:37:53;;;;;;;3.93;1.57;;;10.40;99.90;;;;;;5029402;28;20208;-69
2023/04/02 00:40:26;;;;;;;1.60;1.07;;;10.40;99.90;;;;;;5030381;28;20435;-69
2023/04/02 00:42:54;;;;;;;2.10;1.40;;;10.50;99.90;;;;;;5026747;28;20710;-69
2023/04/02 00:45:24;;;;;;;1.80;1.00;;;10.50;99.90;;;;;;5031068;28;20447;-69
2023/04/02 00:47:50;;;;;;;2.03;1.20;;;10.40;99.90;;;;;;5023104;28;20615;-69
2023/04/02 00:50:31;;;;;;;1.80;1.20;;;10.40;99.90;;;;;;5033168;28;20521;-69
2023/04/02 00:52:59;;;;;;;2.13;1.30;;;10.50;99.90;;;;;;5026166;28;20993;-70
2023/04/02 00:55:36;;;;;;;1.60;1.10;;;10.50;99.90;;;;;;5032458;28;20998;-70
2023/04/02 00:58:03;;;;;;;2.27;1.33;;;10.60;99.90;;;;;;5022370;28;20465;-69
2023/04/02 01:00:31;;;;;;;2.17;1.40;;;10.50;99.90;;;;;;5030768;28;20423;-70
2023/04/02 01:03:27;;;;;;;2.57;1.30;;;10.60;99.90;;;;;;5028084;28;20803;-69
2023/04/02 01:06:02;;;;;;;3.50;1.50;;;10.60;99.90;;;;;;5035551;28;20437;-70
2023/04/02 01:08:34;;;;;;;2.03;1.30;;;10.60;99.90;;;;;;5030730;28;20476;-71
2023/04/02 01:11:42;;;;;;;2.20;1.40;;;10.60;99.90;;;;;;5025352;28;20877;-70
2023/04/02 01:14:22;;;;;;;1.90;1.10;;;10.60;99.90;;;;;;5029357;28;21011;-70
2023/04/02 01:17:07;;;;;;;3.00;1.20;;;10.60;99.90;;;;;;5033733;28;20890;-70
2023/04/02 01:20:13;;;;;;;2.20;1.40;;;10.60;99.90;;;;;;5023611;28;20463;-69
2023/04/02 01:23:06;;;;;;;1.80;1.20;;;10.60;99.90;;;;;;5035033;28;20426;-69
2023/04/02 01:25:42;;;;;;;2.17;1.40;;;10.60;99.90;;;;;;5031452;28;20524;-71
2023/04/02 01:28:19;;;;;;;4.90;1.33;;;10.60;99.90;;;;;;5026801;28;21006;-69
2023/04/02 01:30:53;;;;;;;1.70;1.20;;;10.60;99.90;;;;;;5025742;28;20516;-69
2023/04/02 01:33:22;;;;;;;2.03;1.50;;;10.70;99.90;;;;;;5025243;28;20430;-70
2023/04/02 01:36:05;;;;;;;2.33;1.20;;;10.70;99.90;;;;;;5032029;28;20458;-72
2023/04/02 01:38:40;;;;;;;1.60;1.10;;;10.70;99.90;;;;;;5026200;28;21041;-72
2023/04/02 01:41:20;;;;;;;1.70;1.17;;;10.70;99.90;;;;;;5032567;28;20422;-72
2023/04/02 01:43:54;;;;;;;1.83;1.30;;;10.70;99.90;;;;;;5025285;28;20971;-72
2023/04/02 01:46:31;;;;;;;2.60;1.70;;;10.60;99.90;;;;;;5033983;28;20435;-70
2023/04/02 01:49:01;;;;;;;2.80;1.37;;;10.50;99.90;;;;;;5024183;28;20454;-70
2023/04/02 01:51:41;;;;;;;3.60;1.33;;;10.50;99.90;;;;;;5033070;28;20588;-70
2023/04/02 01:54:07;;;;;;;1.60;1.23;;;10.40;99.90;;;;;;5026984;28;20448;-70
2023/04/02 01:56:34;;;;;;;2.30;1.50;;;10.50;99.90;;;;;;5032166;28;20941;-70
2023/04/02 01:59:02;;;;;;;3.07;1.40;;;10.50;99.90;;;;;;5029082;28;20464;-70
2023/04/02 02:01:40;;;;;;;6.27;1.33;;;10.50;99.90;;;;;;5030227;28;20946;-69
2023/04/02 02:04:12;;;;;;;2.43;1.30;;;10.50;99.90;;;;;;5030101;28;20431;-70
2023/04/02 02:06:38;;;;;;;2.40;1.47;;;10.50;99.90;;;;;;5036280;28;20450;-69
2023/04/02 02:09:07;;;;;;;2.83;1.83;;;10.60;99.90;;;;;;5031388;28;20824;-69
2023/04/02 02:11:35;;;;;;;2.33;1.40;;;10.60;99.90;;;;;;5028188;28;20264;-69
2023/04/02 02:14:10;;;;;;;2.70;1.20;;;10.60;99.90;;;;;;5023851;28;20514;-69
2023/04/02 02:16:40;;;;;;;2.80;1.60;;;10.50;99.90;;;;;;5029171;28;20552;-71
2023/04/02 02:19:12;;;;;;;3.53;1.47;;;10.60;99.90;;;;;;5024762;28;20450;-70
2023/04/02 02:21:50;;;;;;;2.57;1.50;;;10.50;99.90;;;;;;5033768;28;20463;-71
2023/04/02 02:24:23;;;;;;;2.93;1.40;;;10.60;99.90;;;;;;5027726;28;20863;-71
2023/04/02 02:27:00;;;;;;;4.07;1.90;;;10.60;99.90;;;;;;5033170;28;20467;-71
2023/04/02 02:29:30;;;;;;;2.40;1.43;;;10.40;99.90;;;;;;5035003;28;20437;-71
2023/04/02 02:31:57;;;;;;;1.80;1.37;;;10.40;99.90;;;;;;5028224;28;20444;-71
2023/04/02 02:34:33;;;;;;;2.27;1.60;;;10.50;99.90;;;;;;5033536;28;20435;-71
2023/04/02 02:37:04;;;;;;;2.43;1.60;;;10.50;99.90;;;;;;5027908;28;20476;-71
2023/04/02 02:39:43;;;;;;;3.10;1.57;;;10.40;99.90;;;;;;5032582;28;20434;-71
2023/04/02 02:42:21;;;;;;;3.13;1.33;;;10.20;99.90;;;;;;5031159;28;20434;-71
2023/04/02 02:44:49;;;;;;;3.30;1.80;;;10.20;99.90;;;;;;5029558;28;20556;-71
2023/04/02 02:47:20;;;;;;;3.17;1.57;;;10.30;99.90;;;;;;5026968;28;20457;-71
2023/04/02 02:49:53;;;;;;;3.50;1.60;;;10.30;99.90;;;;;;5035301;28;20531;-71
2023/04/02 02:52:28;;;;;;;3.00;1.67;;;10.20;99.90;;;;;;5031088;28;20438;-71
2023/04/02 02:55:01;;;;;;;2.03;1.40;;;10.30;99.90;;;;;;5029302;28;20517;-70
2023/04/02 02:57:33;;;;;;;2.20;1.50;;;10.30;99.90;;;;;;5031009;28;20467;-70
2023/04/02 03:00:01;;;;;;;2.53;1.40;;;10.40;99.90;;;;;;5028106;28;20446;-70
2023/04/02 03:02:27;;;;;;;1.70;1.30;;;10.30;99.90;;;;;;5030012;28;20443;-71
2023/04/02 03:04:54;;;;;;;5.00;1.67;;;10.30;99.90;;;;;;5026679;28;20493;-71
2023/04/02 03:07:24;;;;;;;5.60;1.60;;;10.30;99.90;;;;;;5033829;28;20456;-71
2023/04/02 03:10:11;;;;;;;2.77;1.43;;;10.20;99.90;;;;;;5025672;28;20455;-71
2023/04/02 03:13:08;;;;;;;2.00;1.47;;;10.20;99.90;;;;;;5034920;28;20449;-71
2023/04/02 03:15:50;;;;;;;2.63;1.43;;;10.30;99.90;;;;;;5033686;28;20520;-71
2023/04/02 03:18:54;;;;;;;2.00;1.50;;;10.30;99.90;;;;;;5033435;28;20462;-70
2023/04/02 03:21:38;;;;;;;2.60;1.50;;;10.30;99.90;;;;;;5042831;28;20451;-70
2023/04/02 03:24:13;;;;;;;3.30;1.40;;;10.30;99.90;;;;;;5022089;28;20449;-70
2023/04/02 03:26:44;;;;;;;2.27;1.50;;;10.30;99.90;;;;;;5031260;28;20462;-70
2023/04/02 03:29:17;;;;;;;3.30;1.50;;;10.30;99.90;;;;;;5031623;28;21155;-70
2023/04/02 03:31:48;;;;;;;3.37;1.67;;;10.40;99.90;;;;;;5029406;28;20447;-70
2023/04/02 03:34:32;;;;;;;3.50;2.10;;;10.40;99.90;;;;;;5024442;28;21039;-70
2023/04/02 03:37:06;;;;;;;3.57;1.60;;;10.50;99.90;;;;;;5036282;28;20474;-70
2023/04/02 03:39:35;;;;;;;3.70;1.50;;;10.50;99.90;;;;;;5030793;28;20426;-70
2023/04/02 03:42:15;;;;;;;4.40;1.60;;;10.50;99.90;;;;;;5028038;28;20438;-70
2023/04/02 03:44:51;;;;;;;2.27;1.67;;;10.50;99.90;;;;;;5028206;28;20439;-70
2023/04/02 03:47:46;;;;;;;3.40;1.60;;;10.50;99.90;;;;;;5026249;28;20861;-70
2023/04/02 03:50:41;;;;;;;4.20;1.83;;;10.50;99.90;;;;;;5024927;28;21007;-71
2023/04/02 03:53:08;;;;;;;2.77;1.63;;;10.60;99.90;;;;;;5025497;28;20449;-69
2023/04/02 03:55:36;;;;;;;2.40;1.63;;;10.60;99.90;;;;;;5024369;28;21409;-69
2023/04/02 03:58:25;;;;;;;2.63;1.80;;;10.60;99.90;;;;;;5028685;28;20490;-70
2023/04/02 04:00:53;;;;;;;2.20;1.90;;;10.70;99.90;;;;;;5026484;28;20522;-70
2023/04/02 04:03:25;;;;;;;3.20;1.90;;;10.70;99.90;;;;;;5030137;28;21022;-69
2023/04/02 04:06:20;;;;;;;2.57;1.53;;;10.70;99.90;;;;;;5026845;28;20966;-68
2023/04/02 04:08:50;;;;;;;5.50;1.70;;;10.60;99.90;;;;;;5026279;28;20439;-70
2023/04/02 04:11:21;;;;;;;5.23;2.00;;;10.60;99.90;;;;;;5026638;28;20572;-69
2023/04/02 04:13:58;;;;;;;5.23;2.07;;;10.40;99.90;;;;;;5026093;28;20438;-69
2023/04/02 04:16:41;;;;;;;4.60;1.70;;;10.40;99.90;;;;;;5028823;28;20473;-69
2023/04/02 04:19:23;;;;;;;4.17;1.70;;;10.40;99.90;;;;;;5023694;28;20437;-72
2023/04/02 04:21:56;;;;;;;2.63;1.70;;;10.40;99.90;;;;;;5027551;28;20435;-70
2023/04/02 04:24:24;;;;;;;4.50;1.67;;;10.40;99.90;;;;;;5029010;28;20483;-70
2023/04/02 04:27:17;;;;;;;2.33;1.47;;;10.40;99.90;;;;;;5027560;28;20461;-70
2023/04/02 04:30:35;;;;;;;3.23;2.00;;;10.20;99.90;;;;;;5028263;28;20823;-70
2023/04/02 04:33:14;;;;;;;3.37;2.03;;;10.30;99.90;;;;;;5025918;28;20447;-70
2023/04/02 04:35:48;;;;;;;4.33;2.23;;;10.30;99.90;;;;;;5028962;28;21225;-70
2023/04/02 04:38:26;;;;;;;2.93;1.90;;;10.30;99.90;;;;;;5030450;28;20456;-70
2023/04/02 04:40:59;;;;;;;5.10;2.43;;;10.40;99.90;;;;;;5031161;28;20447;-72
2023/04/02 04:43:45;;;;;;;4.83;2.20;;;10.20;99.90;;;;;;5025411;28;20462;-71
2023/04/02 04:46:20;;;;;;;2.83;2.00;;;10.20;99.90;;;;;;5028954;28;20459;-70
2023/04/02 04:49:11;;;;;;;3.97;1.97;;;10.10;99.90;;;;;;5028507;28;20434;-70
2023/04/02 04:51:59;;;;;;;4.00;1.83;;;10.20;99.90;;;;;;5028059;28;20435;-69
2023/04/02 04:54:27;;;;;;;2.90;2.13;;;10.20;99.90;;;;;;5027024;28;20871;-70
2023/04/02 04:57:01;;;;;;;4.17;2.00;;;10.20;99.90;;;;;;5025542;28;20562;-69
2023/04/02 04:59:40;;;;;;;4.57;2.13;;;10.20;99.90;;;;;;5029558;28;20446;-68
2023/04/02 05:02:23;;;;;;;2.40;1.70;;;10.20;99.90;;;;;;5032836;28;20528;-70
2023/04/02 05:04:51;;;;;;;2.97;2.00;;;10.20;99.90;;;;;;5031321;28;20472;-69
2023/04/02 05:07:30;;;;;;;2.43;1.70;;;10.20;99.90;;;;;;5035811;28;20820;-69
2023/04/02 05:10:00;;;;;;;3.30;2.17;;;10.20;99.90;;;;;;5029652;28;20462;-69
2023/04/02 05:12:50;;;;;;;3.60;1.90;;;10.20;99.90;;;;;;5030247;28;21213;-69
2023/04/02 05:15:33;;;;;;;2.83;1.73;;;10.20;99.90;;;;;;5023971;28;20472;-71
2023/04/02 05:18:30;;;;;;;3.63;1.97;;;10.20;99.90;;;;;;5028022;28;20638;-71
2023/04/02 05:20:59;;;;;;;4.17;2.30;;;10.20;99.90;;;;;;5033389;28;20438;-70
2023/04/02 05:23:29;;;;;;;3.00;2.20;;;10.30;99.90;;;;;;5027193;28;20438;-70
2023/04/02 05:26:24;;;;;;;5.40;2.13;;;10.20;99.90;;;;;;5022725;28;20528;-71
2023/04/02 05:29:04;;;;;;;2.60;2.10;;;10.30;99.90;;;;;;5033175;28;20435;-71
2023/04/02 05:31:35;;;;;;;3.90;2.50;;;10.20;99.90;;;;;;5032199;28;20890;-69
2023/04/02 05:34:01;;;;;;;2.90;2.40;;;10.20;99.90;;;;;;5027923;28;20530;-70
2023/04/02 05:36:29;;;;;;;2.97;2.40;;;10.20;99.90;;;;;;5033017;28;20490;-71
2023/04/02 05:38:56;;;;;;;3.73;2.00;;;10.20;99.90;;;;;;5025704;28;20180;-71
2023/04/02 05:41:29;;;;;;;2.77;2.20;;;10.20;99.90;;;;;;5028076;28;20438;-71
2023/04/02 05:44:10;;;;;;;3.30;2.30;;;10.30;99.90;;;;;;5030745;28;20438;-71
2023/04/02 05:46:47;;;;;;;5.30;2.60;;;10.40;99.90;;;;;;5034027;28;20831;-71
2023/04/02 05:49:38;;;;;;;28.63;22.20;;;10.40;99.90;;;;;;5029782;28;20938;-71
2023/04/02 05:52:10;;;;;;;4.13;2.80;;;10.30;99.90;;;;;;5030116;28;20438;-71
2023/04/02 05:54:50;;;;;;;5.00;2.43;;;10.30;99.90;;;;;;5025737;28;20468;-71
2023/04/02 05:57:20;;;;;;;6.17;2.60;;;10.40;99.90;;;;;;5028853;28;20474;-71
2023/04/02 05:59:54;;;;;;;5.03;2.30;;;10.40;99.90;;;;;;5026581;28;20531;-72
2023/04/02 06:02:31;;;;;;;3.00;2.20;;;10.50;99.90;;;;;;5027421;28;20447;-72
2023/04/02 06:05:24;;;;;;;4.13;2.00;;;10.60;99.90;;;;;;5029504;28;20504;-72
2023/04/02 06:08:13;;;;;;;4.77;2.10;;;10.50;99.90;;;;;;5029963;28;20466;-71
2023/04/02 06:10:55;;;;;;;3.87;2.47;;;10.50;99.90;;;;;;5030087;28;20576;-71
2023/04/02 06:13:20;;;;;;;3.17;2.27;;;10.60;99.90;;;;;;5028843;28;20442;-71
2023/04/02 06:15:46;;;;;;;4.90;2.23;;;10.60;99.90;;;;;;5027251;28;20451;-70
2023/04/02 06:18:47;;;;;;;6.00;2.40;;;10.70;99.90;;;;;;5028925;28;20473;-71
2023/04/02 06:21:16;;;;;;;3.90;2.43;;;10.80;99.90;;;;;;5030338;28;20453;-71
2023/04/02 06:24:04;;;;;;;3.73;2.57;;;10.70;99.90;;;;;;5031004;28;20437;-71
2023/04/02 06:26:37;;;;;;;4.33;2.40;;;10.90;99.90;;;;;;5034346;28;20456;-71
2023/04/02 06:29:07;;;;;;;6.43;2.80;;;10.90;99.90;;;;;;5025783;28;20437;-71
2023/04/02 06:31:45;;;;;;;3.90;2.67;;;10.90;99.90;;;;;;5027343;28;20758;-70
2023/04/02 06:34:16;;;;;;;4.27;2.73;;;10.90;99.90;;;;;;5028765;28;21447;-70
2023/04/02 06:36:43;;;;;;;3.70;2.70;;;10.90;99.90;;;;;;5031005;28;20480;-71
2023/04/02 06:39:18;;;;;;;9.07;2.63;;;10.90;99.90;;;;;;5024440;28;20522;-70
2023/04/02 06:41:44;;;;;;;5.23;2.47;;;10.90;99.90;;;;;;5029987;28;20441;-70
2023/04/02 06:44:20;;;;;;;3.23;2.20;;;11.00;99.90;;;;;;5026649;28;20427;-71
2023/04/02 06:46:50;;;;;;;5.40;2.20;;;11.00;99.90;;;;;;5031974;28;20719;-71
2023/04/02 06:49:20;;;;;;;3.00;2.20;;;11.10;99.90;;;;;;5032600;28;20465;-71
2023/04/02 06:51:48;;;;;;;3.37;2.33;;;11.00;99.90;;;;;;5029548;28;20444;-71
2023/04/02 06:54:16;;;;;;;4.27;2.10;;;11.00;99.90;;;;;;5026527;28;20442;-71
2023/04/02 06:56:50;;;;;;;2.60;2.27;;;10.90;99.90;;;;;;5034572;28;20470;-71
2023/04/02 06:59:16;;;;;;;2.80;2.30;;;11.00;99.90;;;;;;5028055;28;20435;-72
2023/04/02 07:02:05;;;;;;;5.10;2.50;;;11.00;99.90;;;;;;5031262;28;20473;-72
2023/04/02 07:04:31;;;;;;;2.70;2.20;;;11.00;99.90;;;;;;5028375;28;20436;-72
2023/04/02 07:06:57;;;;;;;3.57;2.27;;;11.00;99.90;;;;;;5026383;28;21174;-71
2023/04/02 07:09:23;;;;;;;4.20;2.27;;;11.00;99.90;;;;;;5021202;28;20458;-73
2023/04/02 07:11:50;;;;;;;3.20;2.20;;;11.00;99.90;;;;;;5029053;28;20204;-71
2023/04/02 07:14:16;;;;;;;3.70;2.40;;;11.10;99.90;;;;;;5028594;28;20845;-71
2023/04/02 07:16:42;;;;;;;3.00;2.10;;;11.00;99.90;;;;;;5030475;28;20470;-70
2023/04/02 07:19:19;;;;;;;4.20;2.33;;;11.10;99.90;;;;;;5028302;28;20274;-71
2023/04/02 07:21:45;;;;;;;3.00;2.50;;;11.20;99.90;;;;;;5031462;28;20953;-70
2023/04/02 07:24:11;;;;;;;3.67;2.30;;;11.30;99.90;;;;;;5021298;28;22249;-70
2023/04/02 07:26:37;;;;;;;5.43;2.87;;;11.30;99.90;;;;;;5027307;28;20808;-70
2023/04/02 07:29:08;;;;;;;6.60;2.40;;;11.20;99.90;;;;;;5028386;28;20250;-70
2023/04/02 07:31:34;;;;;;;3.60;1.80;;;11.30;99.90;;;;;;5028590;28;20449;-71
2023/04/02 07:34:00;;;;;;;3.03;2.13;;;11.40;99.90;;;;;;5026135;28;20450;-70
2023/04/02 07:36:28;;;;;;;3.13;2.40;;;11.40;99.90;;;;;;5027473;28;21107;-70
2023/04/02 07:38:54;;;;;;;3.87;2.10;;;11.40;99.90;;;;;;5031874;28;20537;-70
2023/04/02 07:41:20;;;;;;;4.10;2.33;;;11.50;99.90;;;;;;5029415;28;20561;-71
2023/04/02 07:43:47;;;;;;;3.70;2.13;;;11.50;99.90;;;;;;5029381;28;21015;-71
2023/04/02 07:46:15;;;;;;;3.47;2.23;;;11.50;99.90;;;;;;5029613;28;20435;-71
2023/04/02 07:48:41;;;;;;;2.67;2.00;;;11.60;99.90;;;;;;5031132;28;20679;-70
2023/04/02 07:51:18;;;;;;;3.63;2.00;;;11.70;99.90;;;;;;5028883;28;20546;-69
2023/04/02 07:53:44;;;;;;;3.23;2.10;;;11.80;99.90;;;;;;5028161;28;20414;-71
2023/04/02 07:56:14;;;;;;;7.43;2.93;;;11.80;99.90;;;;;;5030567;28;20887;-70
2023/04/02 07:58:40;;;;;;;3.60;2.00;;;11.80;99.90;;;;;;5024390;28;20432;-69
2023/04/02 08:01:15;;;;;;;3.30;2.07;;;11.80;99.90;;;;;;5023725;28;20497;-70
2023/04/02 08:03:41;;;;;;;3.80;2.13;;;12.00;99.90;;;;;;5023443;28;20888;-70
2023/04/02 08:06:06;;;;;;;4.80;2.00;;;12.00;99.90;;;;;;5021840;28;20513;-70
2023/04/02 08:08:32;;;;;;;5.63;1.90;;;12.10;99.90;;;;;;5024133;28;20180;-70
2023/04/02 08:10:57;;;;;;;3.23;1.80;;;12.10;99.90;;;;;;5026957;28;20196;-70
2023/04/02 08:13:23;;;;;;;4.00;2.00;;;12.00;99.90;;;;;;5031090;28;20189;-71
2023/04/02 08:15:49;;;;;;;2.97;1.90;;;12.00;99.90;;;;;;5028565;28;20788;-69
2023/04/02 08:18:14;;;;;;;7.90;2.20;;;12.00;99.90;;;;;;5029497;28;20200;-70
2023/04/02 08:20:40;;;;;;;3.33;1.90;;;11.90;99.90;;;;;;5024344;28;20242;-70
2023/04/02 08:23:14;;;;;;;2.20;1.70;;;11.90;99.90;;;;;;5028241;28;20192;-70
2023/04/02 08:25:40;;;;;;;3.60;2.30;;;12.00;99.90;;;;;;5027394;28;20186;-71
2023/04/02 08:28:05;;;;;;;3.30;1.80;;;12.10;99.90;;;;;;5026435;28;20684;-71
2023/04/02 08:30:31;;;;;;;5.10;2.13;;;12.10;99.90;;;;;;5021613;28;20180;-71
2023/04/02 08:32:57;;;;;;;3.30;1.83;;;12.00;99.90;;;;;;5030430;28;20179;-71
2023/04/02 08:35:22;;;;;;;2.90;1.70;;;12.10;99.90;;;;;;5025230;28;20212;-71
2023/04/02 08:37:48;;;;;;;2.80;1.73;;;12.10;99.90;;;;;;5026021;28;20312;-71
2023/04/02 08:40:38;;;;;;;2.97;2.00;;;12.20;99.90;;;;;;5026169;28;20603;-71
2023/04/02 08:43:29;;;;;;;3.20;2.20;;;12.40;99.90;;;;;;5027269;28;20179;-70
2023/04/02 08:46:20;;;;;;;3.87;2.00;;;12.40;99.90;;;;;;5027805;28;20435;-70
2023/04/02 08:48:54;;;;;;;3.23;1.70;;;12.40;99.90;;;;;;5023445;28;20969;-71
2023/04/02 08:51:28;;;;;;;3.50;1.87;;;12.40;99.90;;;;;;5029827;28;20484;-72
2023/04/02 08:53:59;;;;;;;2.20;1.70;;;12.50;99.90;;;;;;5030065;28;20430;-71
2023/04/02 08:56:45;;;;;;;2.60;2.10;;;12.50;99.90;;;;;;5034343;28;20470;-71
2023/04/02 08:59:34;;;;;;;2.63;1.90;;;12.60;99.90;;;;;;5025624;28;20439;-70
2023/04/02 09:02:05;;;;;;;2.60;2.00;;;12.70;99.90;;;;;;5022423;28;20556;-71
2023/04/02 09:04:32;;;;;;;4.37;1.73;;;12.80;99.90;;;;;;5027204;28;20435;-71
2023/04/02 09:06:59;;;;;;;5.57;1.90;;;12.90;99.90;;;;;;5022356;28;20501;-70
2023/04/02 09:09:26;;;;;;;3.53;1.90;;;13.00;99.90;;;;;;5021182;28;21353;-70
2023/04/02 09:11:57;;;;;;;3.80;2.00;;;13.00;99.90;;;;;;5024485;28;20465;-69
2023/04/02 09:14:43;;;;;;;2.73;1.80;;;13.00;99.90;;;;;;5027002;28;20515;-70
2023/04/02 09:17:21;;;;;;;2.10;1.80;;;13.20;99.90;;;;;;5038239;28;20466;-69
2023/04/02 09:20:16;;;;;;;3.43;1.70;;;13.40;99.90;;;;;;5021002;28;20503;-70
2023/04/02 09:22:47;;;;;;;2.33;1.77;;;13.50;99.90;;;;;;5032594;28;20754;-70
2023/04/02 09:25:19;;;;;;;1.90;1.40;;;13.60;99.90;;;;;;5025268;28;20434;-70
2023/04/02 09:27:50;;;;;;;2.27;1.67;;;13.60;99.90;;;;;;5023542;28;20453;-71
2023/04/02 09:30:28;;;;;;;2.37;1.67;;;13.90;99.90;;;;;;5023786;28;20964;-70
2023/04/02 09:32:57;;;;;;;2.00;1.50;;;14.10;99.90;;;;;;5020415;28;20945;-70
2023/04/02 09:35:28;;;;;;;2.17;1.70;;;14.20;99.90;;;;;;5020663;28;20441;-70
2023/04/02 09:38:08;;;;;;;1.80;1.57;;;14.20;99.90;;;;;;5028991;28;20550;-70
2023/04/02 09:40:40;;;;;;;4.40;3.53;;;14.40;99.90;;;;;;5024288;28;20419;-70
2023/04/02 09:43:15;;;;;;;3.33;2.00;;;14.40;99.90;;;;;;5025073;28;20843;-70
2023/04/02 09:45:43;;;;;;;2.63;1.80;;;14.60;99.90;;;;;;5022156;28;20446;-70
2023/04/02 09:48:25;;;;;;;2.43;1.47;;;14.80;99.90;;;;;;5021233;28;20483;-74
2023/04/02 09:51:05;;;;;;;1.93;1.57;;;14.90;99.90;;;;;;5023778;28;20426;-70
2023/04/02 09:53:37;;;;;;;2.40;1.43;;;14.90;99.90;;;;;;5022348;28;20834;-70
2023/04/02 09:56:13;;;;;;;1.83;1.40;;;15.10;99.90;;;;;;5021574;28;20455;-71
2023/04/02 09:58:41;;;;;;;1.73;1.43;;;14.80;99.90;;;;;;5024331;28;20437;-71
2023/04/02 10:01:28;;;;;;;2.10;1.73;;;14.80;99.90;;;;;;5027998;28;20516;-71
2023/04/02 10:03:54;;;;;;;2.43;1.67;;;15.00;99.90;;;;;;5024576;28;20446;-71
2023/04/02 10:06:20;;;;;;;2.60;1.70;;;15.20;99.90;;;;;;5021789;28;20446;-72
2023/04/02 10:08:46;;;;;;;1.80;1.33;;;15.30;99.90;;;;;;5018524;28;21742;-73
2023/04/02 10:11:26;;;;;;;2.10;1.40;;;15.30;99.90;;;;;;5009059;28;20219;-73
2023/04/02 10:13:56;;;;;;;2.00;1.57;;;15.50;99.90;;;;;;5024134;28;20186;-73
2023/04/02 10:16:41;;;;;;;2.73;1.40;;;15.60;99.90;;;;;;5021877;28;21156;-73
2023/04/02 10:19:28;;;;;;;2.50;1.50;;;15.80;99.90;;;;;;5027389;28;20450;-73
2023/04/02 10:21:56;;;;;;;2.53;1.70;;;16.00;99.90;;;;;;5019547;28;20660;-71
2023/04/02 10:24:22;;;;;;;2.30;1.60;;;16.00;99.90;;;;;;5020483;28;20446;-71
2023/04/02 10:26:52;;;;;;;1.80;1.53;;;15.60;99.90;;;;;;5026097;28;20454;-68
2023/04/02 10:29:35;;;;;;;2.00;1.60;;;15.80;99.90;;;;;;5026674;28;20621;-68
2023/04/02 10:32:43;;;;;;;5.23;1.67;;;16.10;99.90;;;;;;5029168;28;20439;-70
2023/04/02 10:35:22;;;;;;;2.03;1.60;;;16.10;99.90;;;;;;5028610;28;20442;-69
2023/04/02 10:38:25;;;;;;;2.53;1.80;;;15.80;99.90;;;;;;5033745;28;20479;-69
2023/04/02 10:41:01;;;;;;;2.43;1.80;;;15.70;99.90;;;;;;5028919;28;21035;-69
2023/04/02 10:43:57;;;;;;;2.20;1.70;;;15.60;99.90;;;;;;5026950;28;20472;-69
2023/04/02 10:46:27;;;;;;;2.37;1.67;;;15.60;99.90;;;;;;5026010;28;20803;-69
2023/04/02 10:49:07;;;;;;;2.20;1.70;;;15.60;99.90;;;;;;5026769;28;20807;-67
2023/04/02 10:51:55;;;;;;;3.13;1.53;;;15.50;99.90;;;;;;5027952;28;20438;-69
2023/04/02 10:54:36;;;;;;;2.83;2.07;;;15.40;99.90;;;;;;5027942;28;20545;-69
2023/04/02 10:57:22;;;;;;;3.37;1.87;;;15.10;99.90;;;;;;5033915;28;20473;-71
2023/04/02 10:59:55;;;;;;;2.37;1.70;;;15.00;99.90;;;;;;5022540;28;20452;-71
2023/04/02 11:02:26;;;;;;;1.97;1.67;;;14.90;99.90;;;;;;5032060;28;20531;-71
2023/04/02 11:04:53;;;;;;;4.93;3.90;;;15.00;99.90;;;;;;5022794;28;20496;-71
2023/04/02 11:07:27;;;;;;;2.83;2.00;;;15.00;99.90;;;;;;5024806;28;20461;-70
2023/04/02 11:09:56;;;;;;;3.43;1.93;;;15.10;99.90;;;;;;5025917;28;20469;-68
2023/04/02 11:12:48;;;;;;;3.73;2.60;;;15.10;99.90;;;;;;5024986;28;20478;-69
2023/04/02 11:15:16;;;;;;;3.00;2.60;;;15.20;99.90;;;;;;5030959;28;20458;-68
2023/04/02 11:17:43;;;;;;;3.57;1.67;;;15.10;99.90;;;;;;5025992;28;20549;-68
2023/04/02 11:20:42;;;;;;;2.17;1.63;;;15.10;99.90;;;;;;5021571;28;20477;-67
2023/04/02 11:23:12;;;;;;;2.23;1.80;;;15.20;99.90;;;;;;5027184;28;20442;-68
2023/04/02 11:25:38;;;;;;;2.10;1.70;;;15.10;99.90;;;;;;5026421;28;20450;-69
2023/04/02 11:28:28;;;;;;;3.57;1.70;;;15.30;99.90;;;;;;5026925;28;20468;-67
2023/04/02 11:30:55;;;;;;;2.23;1.70;;;15.50;99.90;;;;;;5028819;28;20445;-67
2023/04/02 11:33:40;;;;;;;5.00;1.77;;;15.50;99.90;;;;;;5029879;28;20443;-67
2023/04/02 11:36:43;;;;;;;2.00;1.60;;;15.70;99.90;;;;;;5028129;28;20458;-66
2023/04/02 11:39:10;;;;;;;2.20;1.80;;;15.70;99.90;;;;;;5026816;28;21157;-67
2023/04/02 11:42:01;;;;;;;2.30;1.50;;;16.10;99.90;;;;;;5034500;28;20438;-67
2023/04/02 11:44:27;;;;;;;3.30;1.70;;;16.50;99.90;;;;;;5032892;28;20435;-68
2023/04/02 11:47:25;;;;;;;2.00;1.60;;;16.80;99.90;;;;;;5032146;28;20458;-67
2023/04/02 11:49:53;;;;;;;1.93;1.53;;;17.00;99.90;;;;;;5033205;28;20192;-70
2023/04/02 11:52:34;;;;;;;2.10;1.60;;;17.40;99.90;;;;;;5029792;28;20944;-67
2023/04/02 11:55:29;;;;;;;2.30;1.73;;;17.70;99.90;;;;;;5029473;28;20431;-67
2023/04/02 11:58:03;;;;;;;2.53;1.53;;;17.90;99.90;;;;;;5037295;28;20521;-68
2023/04/02 12:00:47;;;;;;;2.20;1.90;;;18.60;99.90;;;;;;5032671;28;20431;-67
2023/04/02 12:03:45;;;;;;;2.53;1.90;;;18.90;99.90;;;;;;5027183;28;20434;-67
2023/04/02 12:06:19;;;;;;;1.90;1.63;;;19.00;99.90;;;;;;5036254;28;20469;-67
2023/04/02 12:09:14;;;;;;;1.97;1.70;;;19.10;99.90;;;;;;5030388;28;20425;-67
2023/04/02 12:11:40;;;;;;;3.30;2.73;;;18.90;99.90;;;;;;5034243;28;20430;-67
2023/04/02 12:14:42;;;;;;;2.10;1.90;;;18.50;99.90;;;;;;5035125;28;20443;-67
2023/04/02 12:17:28;;;;;;;3.20;1.70;;;18.30;99.90;;;;;;5032693;28;20485;-69
2023/04/02 12:20:19;;;;;;;1.90;1.63;;;18.00;99.90;;;;;;5031138;28;20439;-67
2023/04/02 12:22:56;;;;;;;2.67;2.00;;;17.80;99.90;;;;;;5030399;28;20561;-68
2023/04/02 12:25:38;;;;;;;2.50;1.90;;;17.70;99.90;;;;;;5031123;28;20441;-68
2023/04/02 12:28:10;;;;;;;1.90;1.60;;;17.40;99.90;;;;;;5033079;28;20434;-67
2023/04/02 12:30:40;;;;;;;2.60;1.87;;;17.20;99.90;;;;;;5030202;28;20987;-68
2023/04/02 12:33:29;;;;;;;3.33;1.70;;;17.10;99.90;;;;;;5031006;28;20493;-67
2023/04/02 12:35:57;;;;;;;3.70;2.00;;;16.90;99.90;;;;;;5029850;28;20981;-67
2023/04/02 12:38:48;;;;;;;1.90;1.70;;;16.50;99.90;;;;;;5024718;28;20436;-67
2023/04/02 12:41:32;;;;;;;2.27;1.73;;;16.30;99.90;;;;;;5034785;28;20767;-68
2023/04/02 12:43:57;;;;;;;2.10;1.73;;;16.10;99.90;;;;;;5030905;28;20446;-68
2023/04/02 12:46:24;;;;;;;2.70;2.00;;;16.00;99.90;;;;;;5029609;28;20496;-67
2023/04/02 12:48:52;;;;;;;2.50;2.07;;;15.90;99.90;;;;;;5035958;28;20242;-68
2023/04/02 12:51:18;;;;;;;3.00;2.70;;;15.80;99.90;;;;;;5028310;28;20840;-67
2023/04/02 12:53:49;;;;;;;2.97;2.67;;;15.70;99.90;;;;;;5020600;28;20486;-67
2023/04/02 12:56:22;;;;;;;3.87;2.90;;;15.70;99.90;;;;;;5025401;28;20582;-67
2023/04/02 12:59:00;;;;;;;3.40;2.80;;;15.70;99.90;;;;;;5023264;28;20491;-67
2023/04/02 13:01:28;;;;;;;3.23;2.93;;;15.70;99.90;;;;;;5022566;28;20438;-67
2023/04/02 13:04:07;;;;;;;3.40;3.10;;;15.50;99.90;;;;;;5020690;28;20449;-67
2023/04/02 13:06:35;;;;;;;4.90;3.03;;;15.60;99.90;;;;;;5021327;28;20497;-67
2023/04/02 13:09:03;;;;;;;3.50;3.20;;;15.70;99.90;;;;;;5024248;28;20422;-67
2023/04/02 13:11:40;;;;;;;3.27;2.97;;;15.80;99.90;;;;;;5020085;28;20435;-70
2023/04/02 13:14:15;;;;;;;3.30;3.00;;;15.90;99.90;;;;;;5023929;28;20446;-70
2023/04/02 13:16:41;;;;;;;7.50;3.63;;;15.90;99.90;;;;;;5029628;28;20477;-70
2023/04/02 13:19:21;;;;;;;4.90;4.50;;;15.80;99.90;;;;;;5023510;28;20441;-68
2023/04/02 13:21:46;;;;;;;5.10;4.70;;;15.70;99.90;;;;;;5018418;28;20195;-68
2023/04/02 13:24:20;;;;;;;4.90;4.50;;;15.60;99.90;;;;;;5031166;28;21037;-68
2023/04/02 13:26:48;;;;;;;5.30;4.83;;;15.50;99.90;;;;;;5025156;28;20199;-69
2023/04/02 13:29:18;;;;;;;5.30;4.83;;;15.40;99.90;;;;;;5027259;28;21018;-69
2023/04/02 13:31:44;;;;;;;6.30;5.70;;;15.20;99.90;;;;;;5021353;28;20441;-69